South Indian Lake, Canada
Current Conditions -  °F | °C
As of 7:00 AM on Saturday 25 Oct 2014 (Local Time) from CYTH Reporting Station
Overcast Overcast  
Wind Chill: 24°   Ceiling: 5100
Heat Index: 34°   Visibility: 15mi
Dew Point: 30°   Wind: 16mph
Humidity: 87%   Direction: 270°W
Pressure: 29.62"   Gusts: 23mph
Location:  56.78°N, 98.93°W
Report Text: CYTH 251200Z 27014G20KT 15SM SCT024 OVC051 01/M01 A2962 RMKSC3SC5 SLP043
Loading
Personal Weather Stations






























Interactive Weather Map
Tropical Storm Tracking
New forecast layout! Learn more

10-Day Weather Forecast

Advertisements
Track Severe Weather on mobile